Time;durP1;ratioP1;P1;durP2;ratioP2;P2;SDS_P1;SDS_P2;PMS_P1;PMS_P2;Temp;Humidity;BMP_temperature;BMP_pressure;BME280_temperature;BME280_humidity;BME280_pressure;Samples;Min_cycle;Max_cycle;Signal;HPM_P1;HPM_P2
2021/05/20 00:02:17;;;;;;;0.10;0.10;;;;;;;;;;5126002;28;20202;-68
2021/05/20 00:04:43;;;;;;;0.10;0.10;;;;;;;;;;5126066;28;20214;-68
2021/05/20 00:07:08;;;;;;;0.10;0.10;;;;;;;;;;5124885;28;20402;-69
2021/05/20 00:09:34;;;;;;;0.10;0.10;;;;;;;;;;5125744;28;20221;-68
2021/05/20 00:12:00;;;;;;;0.10;0.10;;;;;;;;;;5125783;28;20396;-69
2021/05/20 00:14:27;;;;;;;0.10;0.10;;;;;;;;;;5125700;28;20221;-68
2021/05/20 00:16:54;;;;;;;0.10;0.10;;;;;;;;;;5125442;28;20205;-69
2021/05/20 00:19:20;;;;;;;0.10;0.10;;;;;;;;;;5126009;28;20400;-68
2021/05/20 00:21:45;;;;;;;0.10;0.10;;;;;;;;;;5123656;28;20208;-69
2021/05/20 00:24:11;;;;;;;0.10;0.10;;;;;;;;;;5119907;28;20203;-69
2021/05/20 00:26:37;;;;;;;0.10;0.10;;;;;;;;;;5124992;28;20287;-69
2021/05/20 00:29:03;;;;;;;0.10;0.10;;;;;;;;;;5125422;28;20210;-70
2021/05/20 00:31:30;;;;;;;4.80;4.23;;;;;;;;;;5125072;28;20557;-70
2021/05/20 00:33:55;;;;;;;0.10;0.10;;;;;;;;;;5125336;28;20208;-70
2021/05/20 00:36:21;;;;;;;0.10;0.10;;;;;;;;;;5125345;28;20417;-70
2021/05/20 00:38:47;;;;;;;0.10;0.10;;;;;;;;;;5127561;27;20203;-70
2021/05/20 00:41:13;;;;;;;0.10;0.10;;;;;;;;;;5121397;27;20399;-69
2021/05/20 00:43:40;;;;;;;0.10;0.10;;;;;;;;;;5124749;28;20215;-70
2021/05/20 00:46:06;;;;;;;0.10;0.10;;;;;;;;;;5129708;27;20213;-69
2021/05/20 00:48:32;;;;;;;0.10;0.10;;;;;;;;;;5125008;28;20235;-70
2021/05/20 00:50:58;;;;;;;0.10;0.10;;;;;;;;;;5124912;28;20245;-69
2021/05/20 00:53:24;;;;;;;0.10;0.10;;;;;;;;;;5130100;27;20221;-69
2021/05/20 00:55:50;;;;;;;0.10;0.10;;;;;;;;;;5124843;28;20412;-70
2021/05/20 00:58:17;;;;;;;0.10;0.10;;;;;;;;;;5124477;28;20244;-69
2021/05/20 01:00:43;;;;;;;0.10;0.10;;;;;;;;;;5134532;27;20211;-69
2021/05/20 01:03:08;;;;;;;0.10;0.10;;;;;;;;;;5127063;27;20214;-69
2021/05/20 01:05:35;;;;;;;0.10;0.10;;;;;;;;;;5124465;27;20225;-69
2021/05/20 01:08:01;;;;;;;0.10;0.10;;;;;;;;;;5121064;27;20239;-68
2021/05/20 01:10:26;;;;;;;0.10;0.10;;;;;;;;;;5123954;28;20200;-69
2021/05/20 01:12:52;;;;;;;0.10;0.10;;;;;;;;;;5118240;28;20273;-69
2021/05/20 01:15:22;;;;;;;0.10;0.10;;;;;;;;;;5128901;27;20209;-70
2021/05/20 01:17:49;;;;;;;0.10;0.10;;;;;;;;;;5124591;28;20396;-69
2021/05/20 01:20:17;;;;;;;0.10;0.10;;;;;;;;;;5130226;27;20200;-69
2021/05/20 01:22:43;;;;;;;0.10;0.10;;;;;;;;;;5124466;28;20222;-69
2021/05/20 01:25:09;;;;;;;0.10;0.10;;;;;;;;;;5123905;28;20214;-69
2021/05/20 01:27:35;;;;;;;0.10;0.10;;;;;;;;;;5124284;28;20215;-70
2021/05/20 01:30:00;;;;;;;0.10;0.10;;;;;;;;;;5123869;28;20317;-70
2021/05/20 01:32:26;;;;;;;0.10;0.10;;;;;;;;;;5124261;28;20225;-69
2021/05/20 01:34:55;;;;;;;0.10;0.10;;;;;;;;;;5123953;28;20204;-69
2021/05/20 01:37:21;;;;;;;0.10;0.10;;;;;;;;;;5123602;28;20471;-68
2021/05/20 01:39:49;;;;;;;0.10;0.10;;;;;;;;;;5123850;28;20488;-69
2021/05/20 01:42:15;;;;;;;0.10;0.10;;;;;;;;;;5127129;27;20202;-69
2021/05/20 01:44:40;;;;;;;0.10;0.10;;;;;;;;;;5128674;27;20349;-69
2021/05/20 01:47:06;;;;;;;0.20;0.20;;;;;;;;;;5124849;28;20439;-68
2021/05/20 01:49:32;;;;;;;0.10;0.10;;;;;;;;;;5123673;28;20223;-70
2021/05/20 01:51:57;;;;;;;0.10;0.10;;;;;;;;;;5123582;28;20224;-68
2021/05/20 01:54:24;;;;;;;0.10;0.10;;;;;;;;;;5123928;28;20199;-70
2021/05/20 01:56:50;;;;;;;0.10;0.10;;;;;;;;;;5121626;27;20209;-69
2021/05/20 01:59:15;;;;;;;0.10;0.10;;;;;;;;;;5123809;28;20258;-69
2021/05/20 02:01:41;;;;;;;0.10;0.10;;;;;;;;;;5123454;28;20204;-69
2021/05/20 02:04:07;;;;;;;0.10;0.10;;;;;;;;;;5123506;28;20434;-69
2021/05/20 02:06:33;;;;;;;0.10;0.10;;;;;;;;;;5123614;28;20228;-69
2021/05/20 02:08:59;;;;;;;0.10;0.10;;;;;;;;;;5123622;28;20250;-69
2021/05/20 02:11:25;;;;;;;0.10;0.10;;;;;;;;;;5123744;28;20208;-69
2021/05/20 02:13:51;;;;;;;0.10;0.10;;;;;;;;;;5122689;28;20206;-68
2021/05/20 02:16:17;;;;;;;0.10;0.10;;;;;;;;;;5123659;28;20205;-68
2021/05/20 02:18:42;;;;;;;0.10;0.10;;;;;;;;;;5123391;28;20512;-69
2021/05/20 02:21:08;;;;;;;0.10;0.10;;;;;;;;;;5123291;28;20202;-69
2021/05/20 02:23:34;;;;;;;0.10;0.10;;;;;;;;;;5129406;28;20204;-69
2021/05/20 02:26:00;;;;;;;0.10;0.10;;;;;;;;;;5123206;28;20209;-69
2021/05/20 02:28:26;;;;;;;0.10;0.10;;;;;;;;;;5122650;28;20281;-69
2021/05/20 02:30:52;;;;;;;0.10;0.10;;;;;;;;;;5123253;28;20271;-69
2021/05/20 02:33:18;;;;;;;0.10;0.10;;;;;;;;;;5123454;28;20222;-70
2021/05/20 02:35:44;;;;;;;0.10;0.10;;;;;;;;;;5123353;28;20210;-70
2021/05/20 02:38:09;;;;;;;0.10;0.10;;;;;;;;;;5123322;28;20297;-69
2021/05/20 02:40:36;;;;;;;0.10;0.10;;;;;;;;;;5123160;28;20202;-69
2021/05/20 02:43:02;;;;;;;0.10;0.10;;;;;;;;;;5123274;28;20230;-69
2021/05/20 02:45:29;;;;;;;0.10;0.10;;;;;;;;;;5122617;28;20316;-69
2021/05/20 02:47:54;;;;;;;0.10;0.10;;;;;;;;;;5125399;28;20224;-69
2021/05/20 02:50:21;;;;;;;0.10;0.10;;;;;;;;;;5127186;28;20223;-70
2021/05/20 02:52:47;;;;;;;0.20;0.20;;;;;;;;;;5127042;28;20201;-69
2021/05/20 02:55:13;;;;;;;0.10;0.10;;;;;;;;;;5127461;28;20209;-69
2021/05/20 02:57:42;;;;;;;0.10;0.10;;;;;;;;;;5127457;28;20368;-69
2021/05/20 03:00:08;;;;;;;0.10;0.10;;;;;;;;;;5125372;28;20209;-69
2021/05/20 03:02:34;;;;;;;0.10;0.10;;;;;;;;;;5127268;28;20208;-69
2021/05/20 03:05:00;;;;;;;0.10;0.10;;;;;;;;;;5127924;27;20207;-69
2021/05/20 03:07:26;;;;;;;0.10;0.10;;;;;;;;;;5127097;28;20265;-69
2021/05/20 03:09:51;;;;;;;0.10;0.10;;;;;;;;;;5127072;28;20230;-69
2021/05/20 03:12:17;;;;;;;0.10;0.10;;;;;;;;;;5127069;28;20206;-69
2021/05/20 03:14:43;;;;;;;0.10;0.10;;;;;;;;;;5126865;28;20206;-68
2021/05/20 03:17:11;;;;;;;0.10;0.10;;;;;;;;;;5125493;28;20196;-69
2021/05/20 03:19:38;;;;;;;0.10;0.10;;;;;;;;;;5126559;28;20518;-69
2021/05/20 03:22:04;;;;;;;0.10;0.10;;;;;;;;;;5128334;27;20245;-70
2021/05/20 03:24:29;;;;;;;0.10;0.10;;;;;;;;;;5133719;27;20211;-69
2021/05/20 03:26:55;;;;;;;0.10;0.10;;;;;;;;;;5126381;28;20225;-70
2021/05/20 03:29:21;;;;;;;0.10;0.10;;;;;;;;;;5126554;28;20211;-69
2021/05/20 03:31:47;;;;;;;0.10;0.10;;;;;;;;;;5121561;28;20229;-69
2021/05/20 03:34:12;;;;;;;0.10;0.10;;;;;;;;;;5133663;27;20401;-70
2021/05/20 03:36:39;;;;;;;0.10;0.10;;;;;;;;;;5126135;28;20508;-69
2021/05/20 03:39:05;;;;;;;0.10;0.10;;;;;;;;;;5126095;28;20534;-69
2021/05/20 03:41:31;;;;;;;0.10;0.10;;;;;;;;;;5119590;28;20198;-69
2021/05/20 03:43:56;;;;;;;0.10;0.10;;;;;;;;;;5126321;27;20348;-70
2021/05/20 03:46:22;;;;;;;0.10;0.10;;;;;;;;;;5126288;28;20207;-69
2021/05/20 03:48:48;;;;;;;0.10;0.10;;;;;;;;;;5124358;28;20202;-68
2021/05/20 03:51:13;;;;;;;0.10;0.10;;;;;;;;;;5131744;27;20207;-69
2021/05/20 03:53:40;;;;;;;0.10;0.10;;;;;;;;;;5125799;28;20434;-70
2021/05/20 03:56:06;;;;;;;0.10;0.10;;;;;;;;;;5126126;28;20204;-69
2021/05/20 03:58:32;;;;;;;0.10;0.10;;;;;;;;;;5132075;27;20395;-69
2021/05/20 04:00:57;;;;;;;0.10;0.10;;;;;;;;;;5125360;28;20203;-69
2021/05/20 04:03:24;;;;;;;0.10;0.10;;;;;;;;;;5124622;28;20198;-69
2021/05/20 04:05:50;;;;;;;0.10;0.10;;;;;;;;;;5124284;28;20200;-69
2021/05/20 04:08:16;;;;;;;0.10;0.10;;;;;;;;;;5125337;28;20366;-69
2021/05/20 04:10:43;;;;;;;0.10;0.10;;;;;;;;;;5125212;28;20211;-69
2021/05/20 04:13:09;;;;;;;0.10;0.10;;;;;;;;;;5124831;28;20460;-68
2021/05/20 04:15:34;;;;;;;0.10;0.10;;;;;;;;;;5132970;27;20225;-69
2021/05/20 04:18:00;;;;;;;0.10;0.10;;;;;;;;;;5130329;27;20236;-69
2021/05/20 04:20:26;;;;;;;0.10;0.10;;;;;;;;;;5125161;27;20208;-70
2021/05/20 04:22:52;;;;;;;0.10;0.10;;;;;;;;;;5128914;27;20212;-70
2021/05/20 04:25:18;;;;;;;0.10;0.10;;;;;;;;;;5125189;28;20201;-70
2021/05/20 04:27:44;;;;;;;0.10;0.10;;;;;;;;;;5123661;28;20495;-70
2021/05/20 04:30:10;;;;;;;0.10;0.10;;;;;;;;;;5125212;27;20345;-69
2021/05/20 04:32:36;;;;;;;0.10;0.10;;;;;;;;;;5130958;27;20225;-70
2021/05/20 04:35:02;;;;;;;0.10;0.10;;;;;;;;;;5134351;27;20502;-69
2021/05/20 04:37:28;;;;;;;0.10;0.10;;;;;;;;;;5124232;28;20200;-69
2021/05/20 04:39:54;;;;;;;0.10;0.10;;;;;;;;;;5125501;28;20488;-69
2021/05/20 04:42:19;;;;;;;0.10;0.10;;;;;;;;;;5127938;27;20219;-69
2021/05/20 04:44:46;;;;;;;0.10;0.10;;;;;;;;;;5127482;27;20211;-69
2021/05/20 04:47:12;;;;;;;0.10;0.10;;;;;;;;;;5127431;27;20228;-70
2021/05/20 04:49:37;;;;;;;0.10;0.10;;;;;;;;;;5126466;27;20203;-70
2021/05/20 04:52:03;;;;;;;0.10;0.10;;;;;;;;;;5123841;28;20215;-67
2021/05/20 04:54:29;;;;;;;0.10;0.10;;;;;;;;;;5127192;27;20224;-69
2021/05/20 04:56:55;;;;;;;0.10;0.10;;;;;;;;;;5130236;27;20201;-69
2021/05/20 04:59:20;;;;;;;0.10;0.10;;;;;;;;;;5127453;27;20200;-70
2021/05/20 05:01:47;;;;;;;0.10;0.10;;;;;;;;;;5130393;27;20603;-69
2021/05/20 05:04:13;;;;;;;0.10;0.10;;;;;;;;;;5123579;27;20210;-69
2021/05/20 05:06:38;;;;;;;0.10;0.10;;;;;;;;;;5128376;27;20387;-69
2021/05/20 05:09:04;;;;;;;0.10;0.10;;;;;;;;;;5121227;28;20202;-69
2021/05/20 05:11:30;;;;;;;0.10;0.10;;;;;;;;;;5126646;27;20201;-68
2021/05/20 05:13:56;;;;;;;0.10;0.10;;;;;;;;;;5124344;27;20208;-68
2021/05/20 05:16:21;;;;;;;0.10;0.10;;;;;;;;;;5126993;27;20206;-69
2021/05/20 05:18:48;;;;;;;0.10;0.10;;;;;;;;;;5126987;27;20216;-69
2021/05/20 05:21:14;;;;;;;0.10;0.10;;;;;;;;;;5132116;27;20227;-68
2021/05/20 05:23:40;;;;;;;0.10;0.10;;;;;;;;;;5126088;27;20204;-69
2021/05/20 05:26:06;;;;;;;0.10;0.10;;;;;;;;;;5129510;27;20502;-68
2021/05/20 05:28:32;;;;;;;0.10;0.10;;;;;;;;;;5125341;27;20230;-68
2021/05/20 05:30:57;;;;;;;0.10;0.10;;;;;;;;;;5126099;27;20234;-70
2021/05/20 05:33:23;;;;;;;0.10;0.10;;;;;;;;;;5133276;27;20268;-69
2021/05/20 05:35:50;;;;;;;0.10;0.10;;;;;;;;;;5127432;27;20498;-69
2021/05/20 05:38:16;;;;;;;0.10;0.10;;;;;;;;;;5131931;27;20198;-69
2021/05/20 05:40:41;;;;;;;0.10;0.10;;;;;;;;;;5126445;27;20221;-69
2021/05/20 05:43:07;;;;;;;0.10;0.10;;;;;;;;;;5126368;27;20234;-69
2021/05/20 05:45:33;;;;;;;0.10;0.10;;;;;;;;;;5133360;27;20209;-68
2021/05/20 05:47:58;;;;;;;0.10;0.10;;;;;;;;;;5129018;27;20245;-70
2021/05/20 05:50:24;;;;;;;0.10;0.10;;;;;;;;;;5124078;28;20259;-70
2021/05/20 05:52:51;;;;;;;0.10;0.10;;;;;;;;;;5123889;28;20201;-69
2021/05/20 05:55:16;;;;;;;0.10;0.10;;;;;;;;;;5126792;27;20212;-69
2021/05/20 05:57:42;;;;;;;0.10;0.10;;;;;;;;;;5126774;27;20200;-70
2021/05/20 06:00:08;;;;;;;0.10;0.10;;;;;;;;;;5125026;28;20235;-68
2021/05/20 06:02:34;;;;;;;0.10;0.10;;;;;;;;;;5127176;27;20501;-69
2021/05/20 06:05:00;;;;;;;0.10;0.10;;;;;;;;;;5134463;27;20411;-68
2021/05/20 06:07:26;;;;;;;0.10;0.10;;;;;;;;;;5143139;27;20288;-68
2021/05/20 06:09:52;;;;;;;0.10;0.10;;;;;;;;;;5128110;27;20536;-69
2021/05/20 06:12:18;;;;;;;0.10;0.10;;;;;;;;;;5121686;28;20204;-70
2021/05/20 06:14:45;;;;;;;0.10;0.10;;;;;;;;;;5134028;28;20226;-70
2021/05/20 06:17:11;;;;;;;0.10;0.10;;;;;;;;;;5124248;28;20200;-70
2021/05/20 06:19:36;;;;;;;0.10;0.10;;;;;;;;;;5123564;28;20209;-70
2021/05/20 06:22:02;;;;;;;0.10;0.10;;;;;;;;;;5125108;28;20504;-68
2021/05/20 06:24:28;;;;;;;0.10;0.10;;;;;;;;;;5129744;27;20279;-67
2021/05/20 06:26:54;;;;;;;0.10;0.10;;;;;;;;;;5127181;27;20219;-71
2021/05/20 06:29:20;;;;;;;0.10;0.10;;;;;;;;;;5127552;28;20205;-67
2021/05/20 06:31:46;;;;;;;0.10;0.10;;;;;;;;;;5128140;27;20227;-68
2021/05/20 06:34:12;;;;;;;0.10;0.10;;;;;;;;;;5127489;28;20381;-68
2021/05/20 06:36:37;;;;;;;0.10;0.10;;;;;;;;;;5124497;27;20199;-68
2021/05/20 06:39:04;;;;;;;0.10;0.10;;;;;;;;;;5141442;27;20201;-69
2021/05/20 06:41:30;;;;;;;0.10;0.10;;;;;;;;;;5127481;27;20446;-68
2021/05/20 06:43:56;;;;;;;0.10;0.10;;;;;;;;;;5134960;27;20210;-68
2021/05/20 06:46:22;;;;;;;0.10;0.10;;;;;;;;;;5122747;28;20384;-68
2021/05/20 06:48:48;;;;;;;0.10;0.10;;;;;;;;;;5137676;27;20224;-68
2021/05/20 06:51:14;;;;;;;0.10;0.10;;;;;;;;;;5134797;27;20199;-68
2021/05/20 06:53:40;;;;;;;0.10;0.10;;;;;;;;;;5126707;28;20206;-69
2021/05/20 06:56:09;;;;;;;0.10;0.10;;;;;;;;;;5127278;28;20201;-70
2021/05/20 07:01:20;;;;;;;0.10;0.10;;;;;;;;;;5127344;28;20208;-68
2021/05/20 07:03:46;;;;;;;0.10;0.10;;;;;;;;;;5117651;28;20212;-68
2021/05/20 07:06:12;;;;;;;0.10;0.10;;;;;;;;;;5126881;28;20208;-68
2021/05/20 07:08:38;;;;;;;0.10;0.10;;;;;;;;;;5127400;27;20565;-68
2021/05/20 07:11:04;;;;;;;0.10;0.10;;;;;;;;;;5127239;28;20202;-68
2021/05/20 07:13:30;;;;;;;0.10;0.10;;;;;;;;;;5135463;27;20202;-69
2021/05/20 07:15:55;;;;;;;0.10;0.10;;;;;;;;;;5127037;27;20206;-68
2021/05/20 07:18:22;;;;;;;0.10;0.10;;;;;;;;;;5124635;28;20205;-68
2021/05/20 07:20:48;;;;;;;0.10;0.10;;;;;;;;;;5132340;27;20206;-68
2021/05/20 07:23:15;;;;;;;0.10;0.10;;;;;;;;;;5123700;28;20575;-69
2021/05/20 07:25:40;;;;;;;0.10;0.10;;;;;;;;;;5122814;27;20409;-68
2021/05/20 07:28:07;;;;;;;0.10;0.10;;;;;;;;;;5126511;27;20230;-68
2021/05/20 07:30:33;;;;;;;0.10;0.10;;;;;;;;;;5135401;27;20204;-70
2021/05/20 07:32:59;;;;;;;0.20;0.20;;;;;;;;;;5126635;28;20227;-69
2021/05/20 07:35:26;;;;;;;0.10;0.10;;;;;;;;;;5126798;28;20528;-69
2021/05/20 07:37:52;;;;;;;0.10;0.10;;;;;;;;;;5126890;28;20388;-70
2021/05/20 07:40:18;;;;;;;0.10;0.10;;;;;;;;;;5126452;28;20212;-70
2021/05/20 07:42:44;;;;;;;0.10;0.10;;;;;;;;;;5126237;28;20271;-69
2021/05/20 07:45:11;;;;;;;0.10;0.10;;;;;;;;;;5126555;27;20218;-70
2021/05/20 07:47:37;;;;;;;0.10;0.10;;;;;;;;;;5128263;27;20220;-69
2021/05/20 07:50:03;;;;;;;0.10;0.10;;;;;;;;;;5126382;28;20211;-69
2021/05/20 07:52:30;;;;;;;0.10;0.10;;;;;;;;;;5122835;28;20203;-69
2021/05/20 07:54:56;;;;;;;0.10;0.10;;;;;;;;;;5126384;28;20498;-69
2021/05/20 07:57:22;;;;;;;0.10;0.10;;;;;;;;;;5128770;27;20212;-69
2021/05/20 07:59:48;;;;;;;0.10;0.10;;;;;;;;;;5135339;27;20465;-69
2021/05/20 08:02:17;;;;;;;0.10;0.10;;;;;;;;;;5126742;27;20202;-69
2021/05/20 08:04:45;;;;;;;0.10;0.10;;;;;;;;;;5138333;27;20509;-69
2021/05/20 08:07:17;;;;;;;0.10;0.10;;;;;;;;;;5134587;27;20224;-68
2021/05/20 08:09:48;;;;;;;0.10;0.10;;;;;;;;;;5126662;27;20200;-69
2021/05/20 08:12:14;;;;;;;0.10;0.10;;;;;;;;;;5127997;27;20528;-68
2021/05/20 08:14:40;;;;;;;0.10;0.10;;;;;;;;;;5128732;27;20206;-68
2021/05/20 08:17:07;;;;;;;0.10;0.10;;;;;;;;;;5125688;28;20215;-68
2021/05/20 08:19:33;;;;;;;0.10;0.10;;;;;;;;;;5124548;28;20202;-68
2021/05/20 08:21:59;;;;;;;0.10;0.10;;;;;;;;;;5125577;28;20246;-68
2021/05/20 08:24:25;;;;;;;0.10;0.10;;;;;;;;;;5120321;28;20215;-68
2021/05/20 08:26:52;;;;;;;0.10;0.10;;;;;;;;;;5119984;28;20204;-69
2021/05/20 08:29:18;;;;;;;0.10;0.10;;;;;;;;;;5128835;27;20367;-68
2021/05/20 08:31:43;;;;;;;0.10;0.10;;;;;;;;;;5125264;28;20538;-67
2021/05/20 08:34:09;;;;;;;0.10;0.10;;;;;;;;;;5125067;28;20508;-67
2021/05/20 08:36:35;;;;;;;0.10;0.10;;;;;;;;;;5122486;27;20202;-67
2021/05/20 08:39:01;;;;;;;0.10;0.10;;;;;;;;;;5120879;27;20205;-74
2021/05/20 08:41:28;;;;;;;0.10;0.10;;;;;;;;;;5136833;27;20200;-75
2021/05/20 08:43:55;;;;;;;0.10;0.10;;;;;;;;;;5131113;27;20239;-77
2021/05/20 08:46:24;;;;;;;0.23;0.23;;;;;;;;;;5133790;27;20212;-71
2021/05/20 08:48:50;;;;;;;0.10;0.10;;;;;;;;;;5134262;27;20502;-74
2021/05/20 08:51:16;;;;;;;0.10;0.10;;;;;;;;;;5125483;28;20205;-74
2021/05/20 08:53:42;;;;;;;0.10;0.10;;;;;;;;;;5124906;28;20204;-75
2021/05/20 08:56:10;;;;;;;0.10;0.10;;;;;;;;;;5125285;28;20236;-74
2021/05/20 08:58:36;;;;;;;0.10;0.10;;;;;;;;;;5123389;28;20216;-73
2021/05/20 09:01:03;;;;;;;0.10;0.10;;;;;;;;;;5126049;27;20530;-77
2021/05/20 09:03:29;;;;;;;0.10;0.10;;;;;;;;;;5130047;27;20507;-72
2021/05/20 09:05:57;;;;;;;0.10;0.10;;;;;;;;;;5124675;28;20270;-73
2021/05/20 09:08:31;;;;;;;0.10;0.10;;;;;;;;;;5123895;27;20285;-71
2021/05/20 09:10:56;;;;;;;0.10;0.10;;;;;;;;;;5125158;28;20201;-76
2021/05/20 09:13:22;;;;;;;0.10;0.10;;;;;;;;;;5126411;27;20198;-76
2021/05/20 09:15:49;;;;;;;0.10;0.10;;;;;;;;;;5132570;27;20269;-74
2021/05/20 09:18:17;;;;;;;0.10;0.10;;;;;;;;;;5132429;27;20300;-74
2021/05/20 09:20:44;;;;;;;0.10;0.10;;;;;;;;;;5121202;28;20230;-75
2021/05/20 09:23:11;;;;;;;0.00;0.00;;;;;;;;;;5135133;27;20265;-77
2021/05/20 09:25:38;;;;;;;0.10;0.10;;;;;;;;;;5124762;27;20203;-76
2021/05/20 09:28:05;;;;;;;0.10;0.10;;;;;;;;;;5120488;28;20448;-74
2021/05/20 09:30:32;;;;;;;0.10;0.10;;;;;;;;;;5125097;28;20204;-75
2021/05/20 09:32:59;;;;;;;0.10;0.10;;;;;;;;;;5137412;27;20271;-76
2021/05/20 09:35:27;;;;;;;0.10;0.10;;;;;;;;;;5134543;27;20506;-77
2021/05/20 09:37:54;;;;;;;0.10;0.10;;;;;;;;;;5137526;27;20243;-77
2021/05/20 09:40:21;;;;;;;0.10;0.10;;;;;;;;;;5133178;27;20428;-74
2021/05/20 09:42:48;;;;;;;0.10;0.10;;;;;;;;;;5132304;27;20332;-75
2021/05/20 09:45:15;;;;;;;0.10;0.10;;;;;;;;;;5131279;27;20205;-74
2021/05/20 09:47:41;;;;;;;0.10;0.10;;;;;;;;;;5121929;28;20228;-76
2021/05/20 09:50:08;;;;;;;0.10;0.10;;;;;;;;;;5123049;28;20209;-76
2021/05/20 09:52:35;;;;;;;0.10;0.10;;;;;;;;;;5120641;28;20491;-76
2021/05/20 09:55:01;;;;;;;0.10;0.10;;;;;;;;;;5124112;28;20213;-76
2021/05/20 09:57:28;;;;;;;0.10;0.10;;;;;;;;;;5131464;27;20209;-77
2021/05/20 10:00:01;;;;;;;0.10;0.10;;;;;;;;;;5131714;27;20405;-77
2021/05/20 10:02:27;;;;;;;0.10;0.10;;;;;;;;;;5124226;28;20230;-70
2021/05/20 10:04:53;;;;;;;0.10;0.10;;;;;;;;;;5123954;28;20214;-70
2021/05/20 10:07:26;;;;;;;0.10;0.10;;;;;;;;;;5123742;28;20223;-71
2021/05/20 10:09:53;;;;;;;0.10;0.10;;;;;;;;;;5126499;27;20263;-65
2021/05/20 10:12:19;;;;;;;0.10;0.10;;;;;;;;;;5126076;28;20514;-63
2021/05/20 10:14:46;;;;;;;0.10;0.10;;;;;;;;;;5131523;28;20225;-68
2021/05/20 10:17:13;;;;;;;0.10;0.10;;;;;;;;;;5129261;28;20222;-68
2021/05/20 10:19:39;;;;;;;0.10;0.10;;;;;;;;;;5125370;28;20204;-69
2021/05/20 10:22:05;;;;;;;0.10;0.10;;;;;;;;;;5126047;28;20470;-69
2021/05/20 10:24:31;;;;;;;0.10;0.10;;;;;;;;;;5125249;28;20243;-70
2021/05/20 10:26:58;;;;;;;0.10;0.10;;;;;;;;;;5129171;28;20205;-69
2021/05/20 10:29:24;;;;;;;0.10;0.10;;;;;;;;;;5131599;28;20443;-69
2021/05/20 10:31:49;;;;;;;0.10;0.10;;;;;;;;;;5125958;28;20268;-71
2021/05/20 10:34:17;;;;;;;0.10;0.10;;;;;;;;;;5125858;28;20521;-69
2021/05/20 10:36:55;;;;;;;0.07;0.07;;;;;;;;;;5132700;28;20518;-69
2021/05/20 10:39:21;;;;;;;0.10;0.10;;;;;;;;;;5122985;28;20263;-68
2021/05/20 10:41:47;;;;;;;0.03;0.03;;;;;;;;;;5123491;28;20229;-66
2021/05/20 10:44:16;;;;;;;0.07;0.07;;;;;;;;;;5132578;28;20212;-66
2021/05/20 10:47:07;;;;;;;0.10;0.10;;;;;;;;;;5127716;28;20213;-66
2021/05/20 10:49:53;;;;;;;0.10;0.10;;;;;;;;;;5111619;28;20274;-67
2021/05/20 10:52:38;;;;;;;0.10;0.10;;;;;;;;;;5125220;28;20507;-67
2021/05/20 10:55:04;;;;;;;0.10;0.10;;;;;;;;;;5122661;28;20444;-66
2021/05/20 10:57:45;;;;;;;0.10;0.10;;;;;;;;;;5129707;28;20199;-66
2021/05/20 11:00:26;;;;;;;0.10;0.10;;;;;;;;;;5129134;28;20203;-68
2021/05/20 11:02:54;;;;;;;0.10;0.10;;;;;;;;;;5137762;28;20375;-67
2021/05/20 11:05:56;;;;;;;0.10;0.10;;;;;;;;;;5132285;28;20204;-67
2021/05/20 11:08:48;;;;;;;0.00;0.00;;;;;;;;;;5139014;27;20249;-67
2021/05/20 11:11:20;;;;;;;0.10;0.10;;;;;;;;;;5138994;27;20262;-67
2021/05/20 11:13:46;;;;;;;0.03;0.03;;;;;;;;;;5127755;27;20196;-66
2021/05/20 11:16:12;;;;;;;0.10;0.10;;;;;;;;;;5123587;28;20208;-66
2021/05/20 11:18:38;;;;;;;0.10;0.10;;;;;;;;;;5136292;27;20231;-67
2021/05/20 11:21:04;;;;;;;0.03;0.03;;;;;;;;;;5122452;27;20491;-66
2021/05/20 11:23:31;;;;;;;0.10;0.10;;;;;;;;;;5126851;28;20246;-64
2021/05/20 11:26:04;;;;;;;0.00;0.00;;;;;;;;;;5126548;27;20268;-68
2021/05/20 11:28:30;;;;;;;0.10;0.10;;;;;;;;;;5134679;27;20255;-67
2021/05/20 11:30:57;;;;;;;0.10;0.10;;;;;;;;;;5131179;27;20204;-70
2021/05/20 11:33:23;;;;;;;0.00;0.00;;;;;;;;;;5130767;27;20219;-69
2021/05/20 11:35:58;;;;;;;0.10;0.10;;;;;;;;;;5131896;27;20234;-68
2021/05/20 11:38:26;;;;;;;0.00;0.00;;;;;;;;;;5127662;27;20272;-69
2021/05/20 11:40:52;;;;;;;0.10;0.10;;;;;;;;;;5131780;27;20482;-68
2021/05/20 11:43:26;;;;;;;0.05;0.05;;;;;;;;;;5126210;28;20237;-67
2021/05/20 11:45:52;;;;;;;0.10;0.10;;;;;;;;;;5137109;27;20208;-67
2021/05/20 11:48:18;;;;;;;0.10;0.10;;;;;;;;;;5129701;27;20248;-67
2021/05/20 11:50:49;;;;;;;0.10;0.10;;;;;;;;;;5129517;27;20200;-67
2021/05/20 11:53:16;;;;;;;0.10;0.10;;;;;;;;;;5145623;27;20238;-67
2021/05/20 11:55:42;;;;;;;0.05;0.05;;;;;;;;;;5130790;27;20202;-69
2021/05/20 11:58:09;;;;;;;0.10;0.10;;;;;;;;;;5126474;28;20500;-67
2021/05/20 12:00:34;;;;;;;0.00;0.00;;;;;;;;;;5125918;28;20198;-68
2021/05/20 12:03:00;;;;;;;0.10;0.10;;;;;;;;;;5129582;27;20204;-68
2021/05/20 12:05:26;;;;;;;0.00;0.00;;;;;;;;;;5121014;27;20418;-69
2021/05/20 12:07:53;;;;;;;0.10;0.10;;;;;;;;;;5127096;27;20437;-70
2021/05/20 12:10:20;;;;;;;0.10;0.10;;;;;;;;;;5127618;27;20237;-69
2021/05/20 12:12:50;;;;;;;0.10;0.10;;;;;;;;;;5125844;28;20215;-69
2021/05/20 12:15:16;;;;;;;0.10;0.10;;;;;;;;;;5126634;27;20209;-69
2021/05/20 12:17:43;;;;;;;0.10;0.10;;;;;;;;;;5121945;27;20199;-69
2021/05/20 12:20:09;;;;;;;0.10;0.10;;;;;;;;;;5122913;27;20209;-69
2021/05/20 12:22:38;;;;;;;0.10;0.10;;;;;;;;;;5125713;28;20501;-70
2021/05/20 12:25:06;;;;;;;0.08;0.08;;;;;;;;;;5117926;28;20206;-70
2021/05/20 12:27:43;;;;;;;0.00;0.00;;;;;;;;;;5120105;28;20284;-69
2021/05/20 12:30:10;;;;;;;0.00;0.00;;;;;;;;;;5134980;27;20197;-69
2021/05/20 12:32:38;;;;;;;0.10;0.10;;;;;;;;;;5125525;27;20240;-70
2021/05/20 12:35:12;;;;;;;0.00;0.00;;;;;;;;;;5129719;27;20489;-69
2021/05/20 12:37:45;;;;;;;0.08;0.08;;;;;;;;;;5123097;28;20202;-70
2021/05/20 12:40:15;;;;;;;0.00;0.00;;;;;;;;;;5113572;28;20198;-71
2021/05/20 12:42:42;;;;;;;0.10;0.10;;;;;;;;;;5125187;27;20330;-70
2021/05/20 12:45:09;;;;;;;0.10;0.10;;;;;;;;;;5122690;27;20215;-69
2021/05/20 12:47:47;;;;;;;0.30;0.30;;;;;;;;;;5128776;27;20216;-69
2021/05/20 12:50:25;;;;;;;0.10;0.10;;;;;;;;;;5133956;27;20271;-69
2021/05/20 12:52:51;;;;;;;0.10;0.10;;;;;;;;;;5131809;27;20201;-69
2021/05/20 12:55:17;;;;;;;0.05;0.05;;;;;;;;;;5125011;28;20200;-69
2021/05/20 12:57:58;;;;;;;0.10;0.10;;;;;;;;;;5126978;27;20237;-69
2021/05/20 13:00:27;;;;;;;0.10;0.10;;;;;;;;;;5128112;27;20261;-68
2021/05/20 13:02:57;;;;;;;0.10;0.10;;;;;;;;;;5125298;27;20232;-71
2021/05/20 13:05:24;;;;;;;0.10;0.10;;;;;;;;;;5124781;28;20205;-71
2021/05/20 13:07:49;;;;;;;0.10;0.10;;;;;;;;;;5124849;28;20225;-70
2021/05/20 13:10:30;;;;;;;0.07;0.07;;;;;;;;;;5124616;28;20364;-71
2021/05/20 13:12:57;;;;;;;0.10;0.10;;;;;;;;;;5113438;28;20215;-71
2021/05/20 13:15:23;;;;;;;0.03;0.03;;;;;;;;;;5122853;28;20205;-70
2021/05/20 13:17:59;;;;;;;0.07;0.07;;;;;;;;;;5125351;27;20231;-68
2021/05/20 13:23:28;;;;;;;0.10;0.10;;;;;;;;;;5124292;28;20531;-70
2021/05/20 13:25:54;;;;;;;0.10;0.10;;;;;;;;;;5123975;28;20205;-69
2021/05/20 13:28:21;;;;;;;0.10;0.10;;;;;;;;;;5130870;27;20220;-69
2021/05/20 13:30:52;;;;;;;0.10;0.10;;;;;;;;;;5126860;27;20268;-70
2021/05/20 13:33:24;;;;;;;0.10;0.10;;;;;;;;;;5132962;27;20221;-72
2021/05/20 13:35:50;;;;;;;0.10;0.10;;;;;;;;;;5123450;28;20220;-70
2021/05/20 13:38:16;;;;;;;0.10;0.10;;;;;;;;;;5115866;28;20201;-69
2021/05/20 13:40:43;;;;;;;0.10;0.10;;;;;;;;;;5116139;28;20222;-69
2021/05/20 13:43:09;;;;;;;0.10;0.10;;;;;;;;;;5117724;27;20228;-68
2021/05/20 13:45:36;;;;;;;0.10;0.10;;;;;;;;;;5117087;28;20206;-70
2021/05/20 13:48:01;;;;;;;0.10;0.10;;;;;;;;;;5117029;28;20285;-69
2021/05/20 13:50:27;;;;;;;0.10;0.10;;;;;;;;;;5119025;27;20207;-69
2021/05/20 13:52:54;;;;;;;0.10;0.10;;;;;;;;;;5116712;27;20204;-70
2021/05/20 13:55:20;;;;;;;0.10;0.10;;;;;;;;;;5115745;28;21132;-68
2021/05/20 13:57:46;;;;;;;0.10;0.10;;;;;;;;;;5118134;27;20240;-69
2021/05/20 14:00:18;;;;;;;0.03;0.03;;;;;;;;;;5120154;27;20206;-66
2021/05/20 14:02:45;;;;;;;0.10;0.10;;;;;;;;;;5115683;27;20507;-68
2021/05/20 14:05:11;;;;;;;0.10;0.10;;;;;;;;;;5119191;28;20211;-68
2021/05/20 14:07:37;;;;;;;0.10;0.10;;;;;;;;;;5117836;28;20215;-68
2021/05/20 14:10:04;;;;;;;0.10;0.10;;;;;;;;;;5114415;28;20236;-68
2021/05/20 14:12:30;;;;;;;0.10;0.10;;;;;;;;;;5111512;28;20244;-68
2021/05/20 14:14:57;;;;;;;0.10;0.10;;;;;;;;;;5118567;28;20565;-68
2021/05/20 14:17:23;;;;;;;0.10;0.10;;;;;;;;;;5122453;28;20205;-69
2021/05/20 14:19:52;;;;;;;0.10;0.10;;;;;;;;;;5116572;28;20570;-68
2021/05/20 14:22:18;;;;;;;0.10;0.10;;;;;;;;;;5117035;28;20206;-69
2021/05/20 14:24:44;;;;;;;0.00;0.00;;;;;;;;;;5117885;28;20219;-69
2021/05/20 14:27:13;;;;;;;0.10;0.10;;;;;;;;;;5114345;28;20288;-69
2021/05/20 14:29:39;;;;;;;0.10;0.10;;;;;;;;;;5111486;28;20333;-68
2021/05/20 14:32:06;;;;;;;0.10;0.10;;;;;;;;;;5115441;28;20226;-68
2021/05/20 14:34:31;;;;;;;0.10;0.10;;;;;;;;;;5110644;28;20388;-68
2021/05/20 14:36:58;;;;;;;0.10;0.10;;;;;;;;;;5117577;28;20216;-70
2021/05/20 14:39:24;;;;;;;0.05;0.05;;;;;;;;;;5119002;28;20269;-68
2021/05/20 14:41:50;;;;;;;0.10;0.10;;;;;;;;;;5117832;28;20228;-69
2021/05/20 14:44:16;;;;;;;0.00;0.00;;;;;;;;;;5119372;27;20308;-70
2021/05/20 14:46:42;;;;;;;0.10;0.10;;;;;;;;;;5115530;27;20218;-70
2021/05/20 14:49:12;;;;;;;0.10;0.10;;;;;;;;;;5121156;28;20277;-69